createdAt,value
2022-12-05T00:00:39.202Z,998.21
2022-12-05T00:01:39.038Z,998.11
2022-12-05T00:02:39.007Z,998.13
2022-12-05T00:03:38.778Z,998.11
2022-12-05T00:04:39.017Z,998.18
2022-12-05T00:05:38.744Z,998.13
2022-12-05T00:06:38.785Z,998.09
2022-12-05T00:07:38.844Z,998.17
2022-12-05T00:08:38.730Z,998.21
2022-12-05T00:10:10.659Z,998.22
2022-12-05T00:10:38.701Z,998.25
2022-12-05T00:11:39.853Z,998.21
2022-12-05T00:12:38.683Z,998.21
2022-12-05T00:13:38.702Z,998.23
2022-12-05T00:14:38.674Z,998.24
2022-12-05T00:15:38.682Z,998.22
2022-12-05T00:16:38.773Z,998.19
2022-12-05T00:17:39.704Z,998.21
2022-12-05T00:19:10.575Z,998.24
2022-12-05T00:19:38.837Z,998.23
2022-12-05T00:20:38.670Z,998.24
2022-12-05T00:21:38.627Z,998.19
2022-12-05T00:22:38.680Z,998.32
2022-12-05T00:23:38.627Z,998.27
2022-12-05T00:24:38.630Z,998.29
2022-12-05T00:25:38.607Z,998.29
2022-12-05T00:26:38.609Z,998.26
2022-12-05T00:27:38.624Z,998.27
2022-12-05T00:28:38.616Z,998.33
2022-12-05T00:29:38.609Z,998.26
2022-12-05T00:30:38.589Z,998.31
2022-12-05T00:31:38.678Z,998.33
2022-12-05T00:32:39.376Z,998.38
2022-12-05T00:33:38.576Z,998.37
2022-12-05T00:34:38.569Z,998.33
2022-12-05T00:35:38.584Z,998.41
2022-12-05T00:36:38.529Z,998.36
2022-12-05T00:37:38.510Z,998.31
2022-12-05T00:38:38.546Z,998.32
2022-12-05T00:39:38.547Z,998.29
2022-12-05T00:40:38.560Z,998.33
2022-12-05T00:41:38.560Z,998.33
2022-12-05T00:42:38.578Z,998.34
2022-12-05T00:43:38.481Z,998.33
2022-12-05T00:44:39.462Z,998.25
2022-12-05T00:45:38.546Z,998.29
2022-12-05T00:46:38.489Z,998.30
2022-12-05T00:47:38.438Z,998.30
2022-12-05T00:48:38.460Z,998.30
2022-12-05T00:49:38.410Z,998.36
2022-12-05T00:50:38.443Z,998.35
2022-12-05T00:51:38.472Z,998.38
2022-12-05T00:52:38.537Z,998.34
2022-12-05T00:53:38.402Z,998.37
2022-12-05T00:54:38.390Z,998.41
2022-12-05T00:55:38.412Z,998.35
2022-12-05T00:56:38.376Z,998.38
2022-12-05T00:57:38.373Z,998.41
2022-12-05T00:58:38.362Z,998.39
2022-12-05T00:59:38.377Z,998.37
2022-12-05T01:00:38.464Z,998.51
2022-12-05T01:01:38.485Z,998.39
2022-12-05T01:02:38.365Z,998.41
2022-12-05T01:03:38.376Z,998.45
2022-12-05T01:04:38.321Z,998.45
2022-12-05T01:05:38.366Z,998.45
2022-12-05T01:06:38.281Z,998.44
2022-12-05T01:07:38.348Z,998.48
2022-12-05T01:08:38.268Z,998.48
2022-12-05T01:09:38.289Z,998.41
2022-12-05T01:11:10.170Z,998.45
2022-12-05T01:11:41.445Z,998.46
2022-12-05T01:12:39.289Z,998.46
2022-12-05T01:13:38.226Z,998.48
2022-12-05T01:14:38.273Z,998.49
2022-12-05T01:15:38.214Z,998.45
2022-12-05T01:16:38.314Z,998.44
2022-12-05T01:17:38.291Z,998.41
2022-12-05T01:18:38.196Z,998.44
2022-12-05T01:19:38.180Z,998.47
2022-12-05T01:20:38.228Z,998.43
2022-12-05T01:21:38.187Z,998.40
2022-12-05T01:22:38.171Z,998.43
2022-12-05T01:23:38.132Z,998.47
2022-12-05T01:24:38.876Z,998.46
2022-12-05T01:25:38.141Z,998.48
2022-12-05T01:26:38.154Z,998.42
2022-12-05T01:27:38.140Z,998.48
2022-12-05T01:28:38.159Z,998.47
2022-12-05T01:29:38.097Z,998.53
2022-12-05T01:30:38.141Z,998.45
2022-12-05T01:31:38.144Z,998.49
2022-12-05T01:32:38.142Z,998.52
2022-12-05T01:33:38.106Z,998.51
2022-12-05T01:34:38.102Z,998.51
2022-12-05T01:35:38.081Z,998.55
2022-12-05T01:36:38.077Z,998.52
2022-12-05T01:37:38.056Z,998.49
2022-12-05T01:38:38.226Z,998.45
2022-12-05T01:39:38.042Z,998.53
2022-12-05T01:40:38.033Z,998.56
2022-12-05T01:41:38.090Z,998.56
2022-12-05T01:42:38.018Z,998.64
2022-12-05T01:43:38.040Z,998.62
2022-12-05T01:44:38.051Z,998.63
2022-12-05T01:45:38.079Z,998.60
2022-12-05T01:46:37.984Z,998.60
2022-12-05T01:47:37.980Z,998.60
2022-12-05T01:48:37.972Z,998.56
2022-12-05T01:49:37.996Z,998.54
2022-12-05T01:50:37.951Z,998.54
2022-12-05T01:51:37.975Z,998.55
2022-12-05T01:52:37.954Z,998.56
2022-12-05T01:53:37.936Z,998.57
2022-12-05T01:54:37.933Z,998.57
2022-12-05T01:55:37.962Z,998.59
2022-12-05T01:56:37.941Z,998.58
2022-12-05T01:57:37.972Z,998.58
2022-12-05T01:58:37.938Z,998.63
2022-12-05T02:00:09.828Z,998.59
2022-12-05T02:00:37.988Z,998.58
2022-12-05T02:01:37.943Z,998.67
2022-12-05T02:02:37.889Z,998.62
2022-12-05T02:03:37.842Z,998.56
2022-12-05T02:04:37.847Z,998.60
2022-12-05T02:05:37.866Z,998.61
2022-12-05T02:06:37.804Z,998.57
2022-12-05T02:07:38.953Z,998.60
2022-12-05T02:08:37.798Z,998.58
2022-12-05T02:09:37.803Z,998.60
2022-12-05T02:10:37.833Z,998.54
2022-12-05T02:11:37.789Z,998.56
2022-12-05T02:12:39.071Z,998.56
2022-12-05T02:13:38.781Z,998.57
2022-12-05T02:14:38.795Z,998.59
2022-12-05T02:15:37.825Z,998.59
2022-12-05T02:16:37.812Z,998.56
2022-12-05T02:17:37.784Z,998.63
2022-12-05T02:18:37.753Z,998.57
2022-12-05T02:19:37.728Z,998.61
2022-12-05T02:20:37.736Z,998.63
2022-12-05T02:21:37.714Z,998.65
2022-12-05T02:22:38.739Z,998.59
2022-12-05T02:23:37.735Z,998.60
2022-12-05T02:24:37.707Z,998.61
2022-12-05T02:25:37.695Z,998.65
2022-12-05T02:26:37.681Z,998.59
2022-12-05T02:27:37.734Z,998.62
2022-12-05T02:28:37.656Z,998.61
2022-12-05T02:29:37.666Z,998.59
2022-12-05T02:30:37.638Z,998.64
2022-12-05T02:31:37.759Z,998.63
2022-12-05T02:32:37.696Z,998.65
2022-12-05T02:33:37.848Z,998.65
2022-12-05T02:34:37.636Z,998.67
2022-12-05T02:35:37.678Z,998.63
2022-12-05T02:36:37.691Z,998.67
2022-12-05T02:37:37.607Z,998.64
2022-12-05T02:38:37.632Z,998.69
2022-12-05T02:39:37.611Z,998.68
2022-12-05T02:40:37.685Z,998.65
2022-12-05T02:41:37.574Z,998.68
2022-12-05T02:42:37.596Z,998.61
2022-12-05T02:43:37.671Z,998.55
2022-12-05T02:44:37.585Z,998.51
2022-12-05T02:45:37.683Z,998.59
2022-12-05T02:46:37.615Z,998.62
2022-12-05T02:47:37.538Z,998.62
2022-12-05T02:48:37.537Z,998.53
2022-12-05T02:49:37.551Z,998.49
2022-12-05T02:50:37.590Z,998.47
2022-12-05T02:51:37.545Z,998.49
2022-12-05T02:52:37.525Z,998.52
2022-12-05T02:53:38.498Z,998.46
2022-12-05T02:54:37.458Z,998.48
2022-12-05T02:55:37.484Z,998.45
2022-12-05T02:56:37.483Z,998.47
2022-12-05T02:57:37.447Z,998.46
2022-12-05T02:58:37.460Z,998.46
2022-12-05T02:59:37.449Z,998.49
2022-12-05T03:00:37.504Z,998.42
2022-12-05T03:01:37.492Z,998.45
2022-12-05T03:02:37.406Z,998.48
2022-12-05T03:03:37.403Z,998.46
2022-12-05T03:04:37.541Z,998.48
2022-12-05T03:05:37.406Z,998.44
2022-12-05T03:06:37.403Z,998.47
2022-12-05T03:07:37.492Z,998.39
2022-12-05T03:08:38.415Z,998.40
2022-12-05T03:09:37.354Z,998.45
2022-12-05T03:10:37.381Z,998.43
2022-12-05T03:11:37.436Z,998.44
2022-12-05T03:12:37.400Z,998.48
2022-12-05T03:13:37.329Z,998.46
2022-12-05T03:14:37.360Z,998.48
2022-12-05T03:15:37.306Z,998.48
2022-12-05T03:17:09.840Z,998.51
2022-12-05T03:17:37.350Z,998.50
2022-12-05T03:18:37.279Z,998.55
2022-12-05T03:19:37.368Z,998.56
2022-12-05T03:20:37.272Z,998.53
2022-12-05T03:21:37.261Z,998.54
2022-12-05T03:22:37.247Z,998.59
2022-12-05T03:23:37.279Z,998.54
2022-12-05T03:24:37.234Z,998.48
2022-12-05T03:25:37.232Z,998.49
2022-12-05T03:26:37.218Z,998.53
2022-12-05T03:27:37.404Z,998.52
2022-12-05T03:28:38.237Z,998.51
2022-12-05T03:29:37.248Z,998.50
2022-12-05T03:30:37.282Z,998.51
2022-12-05T03:31:37.206Z,998.56
2022-12-05T03:32:37.269Z,998.55
2022-12-05T03:33:37.178Z,998.56
2022-12-05T03:34:37.163Z,998.53
2022-12-05T03:35:37.152Z,998.57
2022-12-05T03:36:37.185Z,998.56
2022-12-05T03:37:37.142Z,998.60
2022-12-05T03:38:37.183Z,998.60
2022-12-05T03:39:37.136Z,998.56
2022-12-05T03:40:37.165Z,998.55
2022-12-05T03:41:37.121Z,998.59
2022-12-05T03:42:37.127Z,998.59
2022-12-05T03:43:37.153Z,998.60
2022-12-05T03:45:09.032Z,998.63
2022-12-05T03:45:37.121Z,998.67
2022-12-05T03:46:37.257Z,998.69
2022-12-05T03:47:37.101Z,998.59
2022-12-05T04:02:51.978Z,998.78
2022-12-05T04:03:52.152Z,998.81
2022-12-05T04:04:53.069Z,998.87
2022-12-05T04:05:53.119Z,998.83
2022-12-05T04:06:53.079Z,998.87
2022-12-05T04:07:53.102Z,998.84
2022-12-05T04:08:53.030Z,998.86
2022-12-05T04:09:53.027Z,998.86
2022-12-05T04:10:53.043Z,998.81
2022-12-05T04:11:53.116Z,998.81
2022-12-05T04:12:53.069Z,998.85
2022-12-05T04:13:53.051Z,998.81
2022-12-05T04:14:52.992Z,998.74
2022-12-05T04:15:53.067Z,998.83
2022-12-05T04:16:53.063Z,998.84
2022-12-05T04:17:53.896Z,998.79
2022-12-05T04:18:53.987Z,998.78
2022-12-05T04:19:52.963Z,998.82
2022-12-05T04:20:53.001Z,998.84
2022-12-05T04:21:53.020Z,998.81
2022-12-05T04:22:52.971Z,998.80
2022-12-05T04:23:52.942Z,998.86
2022-12-05T04:24:52.989Z,998.85
2022-12-05T04:25:52.928Z,998.89
2022-12-05T04:26:52.921Z,998.83
2022-12-05T04:27:52.902Z,998.90
2022-12-05T04:28:52.908Z,998.89
2022-12-05T04:29:52.929Z,998.87
2022-12-05T04:30:52.921Z,998.90
2022-12-05T04:31:52.901Z,998.89
2022-12-05T04:32:52.877Z,998.95
2022-12-05T04:33:52.854Z,998.98
2022-12-05T04:34:52.888Z,998.94
2022-12-05T04:35:52.892Z,999.00
2022-12-05T04:36:52.831Z,998.97
2022-12-05T04:37:52.851Z,999.02
2022-12-05T04:38:52.834Z,998.95
2022-12-05T04:39:52.865Z,998.97
2022-12-05T04:40:52.831Z,999.01
2022-12-05T04:41:52.887Z,999.04
2022-12-05T04:42:52.813Z,998.99
2022-12-05T04:43:52.773Z,999.04
2022-12-05T04:44:52.797Z,999.03
2022-12-05T04:45:52.802Z,999.10
2022-12-05T04:46:52.797Z,999.02
2022-12-05T04:47:52.755Z,999.09
2022-12-05T04:48:52.738Z,999.14
2022-12-05T04:49:53.937Z,999.09
2022-12-05T04:50:53.727Z,999.12
2022-12-05T04:51:52.739Z,999.16
2022-12-05T04:52:52.713Z,999.11
2022-12-05T04:53:52.708Z,999.18
2022-12-05T04:54:52.674Z,999.16
2022-12-05T04:55:53.692Z,999.11
2022-12-05T04:56:55.624Z,999.12
2022-12-05T04:57:53.678Z,999.12
2022-12-05T04:58:52.770Z,999.13
2022-12-05T04:59:52.670Z,999.11
2022-12-05T05:00:52.651Z,999.06
2022-12-05T05:01:52.748Z,999.16
2022-12-05T05:02:52.705Z,999.18
2022-12-05T05:03:52.631Z,999.13
2022-12-05T05:04:52.621Z,999.12
2022-12-05T05:05:52.638Z,999.12
2022-12-05T05:06:52.678Z,999.10
2022-12-05T05:07:52.726Z,999.13
2022-12-05T05:08:52.593Z,999.13
2022-12-05T05:09:52.666Z,999.16
2022-12-05T05:10:52.589Z,999.10
2022-12-05T05:11:52.566Z,999.14
2022-12-05T05:12:52.581Z,999.19
2022-12-05T05:13:52.581Z,999.17
2022-12-05T05:14:52.592Z,999.15
2022-12-05T05:15:52.601Z,999.16
2022-12-05T05:16:52.554Z,999.14
2022-12-05T05:17:52.518Z,999.22
2022-12-05T05:18:52.571Z,999.25
2022-12-05T05:19:52.497Z,999.22
2022-12-05T05:20:52.559Z,999.21
2022-12-05T05:21:52.497Z,999.22
2022-12-05T05:22:52.483Z,999.23
2022-12-05T05:23:52.616Z,999.23
2022-12-05T05:24:52.484Z,999.24
2022-12-05T05:25:52.460Z,999.22
2022-12-05T05:26:57.075Z,999.20
2022-12-05T05:27:54.447Z,999.26
2022-12-05T05:28:52.497Z,999.26
2022-12-05T05:29:52.441Z,999.24
2022-12-05T05:30:52.484Z,999.24
2022-12-05T05:31:52.407Z,999.24
2022-12-05T05:32:52.426Z,999.26
2022-12-05T05:33:52.404Z,999.28
2022-12-05T05:34:52.410Z,999.24
2022-12-05T05:35:52.429Z,999.31
2022-12-05T05:36:52.426Z,999.31
2022-12-05T05:37:52.407Z,999.25
2022-12-05T05:38:52.365Z,999.32
2022-12-05T05:39:52.388Z,999.28
2022-12-05T05:40:52.366Z,999.28
2022-12-05T05:41:52.374Z,999.33
2022-12-05T05:42:52.336Z,999.36
2022-12-05T05:43:52.346Z,999.37
2022-12-05T05:44:52.340Z,999.30
2022-12-05T05:45:52.333Z,999.35
2022-12-05T05:46:52.397Z,999.35
2022-12-05T05:47:52.291Z,999.34
2022-12-05T05:48:52.312Z,999.38
2022-12-05T05:49:52.331Z,999.38
2022-12-05T05:50:52.302Z,999.38
2022-12-05T05:51:52.300Z,999.45
2022-12-05T05:52:52.304Z,999.41
2022-12-05T05:53:52.245Z,999.38
2022-12-05T05:54:52.263Z,999.41
2022-12-05T05:55:52.315Z,999.35
2022-12-05T05:56:52.271Z,999.40
2022-12-05T05:57:52.250Z,999.43
2022-12-05T05:58:52.218Z,999.41
2022-12-05T05:59:52.201Z,999.41
2022-12-05T06:00:52.230Z,999.43
2022-12-05T06:01:52.206Z,999.40
2022-12-05T06:02:52.290Z,999.39
2022-12-05T06:03:52.325Z,999.43
2022-12-05T06:04:52.149Z,999.41
2022-12-05T06:05:53.197Z,999.43
2022-12-05T06:06:53.161Z,999.37
2022-12-05T06:07:52.250Z,999.38
2022-12-05T06:08:52.151Z,999.38
2022-12-05T06:09:52.146Z,999.38
2022-12-05T06:10:52.130Z,999.38
2022-12-05T06:11:52.142Z,999.38
2022-12-05T06:12:52.122Z,999.42
2022-12-05T06:13:52.082Z,999.43
2022-12-05T06:14:52.113Z,999.41
2022-12-05T06:15:52.318Z,999.41
2022-12-05T06:16:52.144Z,999.42
2022-12-05T06:17:52.084Z,999.40
2022-12-05T06:18:52.061Z,999.51
2022-12-05T06:19:52.071Z,999.48
2022-12-05T06:20:52.068Z,999.48
2022-12-05T06:21:52.057Z,999.50
2022-12-05T06:22:52.035Z,999.48
2022-12-05T06:23:52.031Z,999.49
2022-12-05T06:24:52.010Z,999.52
2022-12-05T06:25:52.010Z,999.47
2022-12-05T06:26:52.009Z,999.51
2022-12-05T06:28:24.450Z,999.50
2022-12-05T06:28:52.001Z,999.53
2022-12-05T06:29:52.982Z,999.52
2022-12-05T06:30:51.975Z,999.55
2022-12-05T06:31:52.062Z,999.55
2022-12-05T06:32:52.732Z,999.51
2022-12-05T06:33:51.966Z,999.55
2022-12-05T06:34:52.136Z,999.60
2022-12-05T06:35:51.950Z,999.58
2022-12-05T06:36:51.940Z,999.57
2022-12-05T06:37:51.919Z,999.59
2022-12-05T06:38:51.923Z,999.57
2022-12-05T06:39:51.924Z,999.60
2022-12-05T06:40:51.919Z,999.56
2022-12-05T06:41:51.906Z,999.55
2022-12-05T06:42:51.881Z,999.54
2022-12-05T06:43:55.113Z,999.50
2022-12-05T06:44:51.878Z,999.49
2022-12-05T06:45:51.936Z,999.52
2022-12-05T06:46:51.869Z,999.49
2022-12-05T06:47:52.014Z,999.47
2022-12-05T06:48:51.816Z,999.52
2022-12-05T06:49:51.822Z,999.58
2022-12-05T06:50:51.817Z,999.57
2022-12-05T06:51:51.823Z,999.60
2022-12-05T06:52:51.808Z,999.56
2022-12-05T06:53:51.825Z,999.59
2022-12-05T06:54:51.804Z,999.57
2022-12-05T06:55:51.851Z,999.56
2022-12-05T06:56:51.791Z,999.60
2022-12-05T06:57:51.812Z,999.57
2022-12-05T06:58:51.790Z,999.58
2022-12-05T06:59:51.746Z,999.67
2022-12-05T07:00:51.782Z,999.66
2022-12-05T07:01:51.925Z,999.65
2022-12-05T07:02:51.885Z,999.65
2022-12-05T07:03:51.726Z,999.63
2022-12-05T07:04:51.709Z,999.67
2022-12-05T07:05:51.691Z,999.62
2022-12-05T07:06:51.693Z,999.69
2022-12-05T07:07:51.787Z,999.69
2022-12-05T07:08:51.688Z,999.72
2022-12-05T07:09:51.686Z,999.77
2022-12-05T07:10:52.654Z,999.81
2022-12-05T07:11:51.728Z,999.78
2022-12-05T07:12:51.653Z,999.86
2022-12-05T07:13:51.682Z,999.83
2022-12-05T07:14:51.644Z,999.81
2022-12-05T07:15:51.664Z,999.87
2022-12-05T07:16:51.699Z,999.85
2022-12-05T07:17:51.627Z,999.85
2022-12-05T07:19:41.572Z,999.90
2022-12-05T07:19:51.595Z,999.89
2022-12-05T07:21:11.236Z,999.90
2022-12-05T07:21:54.583Z,999.92
2022-12-05T07:22:51.590Z,999.98
2022-12-05T07:23:53.551Z,999.96
2022-12-05T07:24:51.643Z,999.98
2022-12-05T07:25:51.555Z,999.95
2022-12-05T07:26:51.606Z,999.87
2022-12-05T07:27:51.542Z,999.98
2022-12-05T07:28:51.564Z,999.97
2022-12-05T07:29:51.536Z,999.98
2022-12-05T07:30:51.523Z,1000.00
2022-12-05T07:31:51.546Z,1000.05
2022-12-05T07:32:51.496Z,1000.07
2022-12-05T07:33:51.704Z,1000.11
2022-12-05T07:34:55.253Z,1000.10
2022-12-05T07:35:52.504Z,1000.11
2022-12-05T07:36:51.471Z,1000.14
2022-12-05T07:37:51.482Z,1000.11
2022-12-05T07:38:51.456Z,1000.09
2022-12-05T07:39:51.440Z,1000.17
2022-12-05T07:40:52.053Z,1000.06
2022-12-05T07:41:52.454Z,1000.17
2022-12-05T07:42:51.425Z,1000.19
2022-12-05T07:43:51.412Z,1000.19
2022-12-05T07:44:51.526Z,1000.14
2022-12-05T07:45:51.493Z,1000.15
2022-12-05T07:46:51.449Z,1000.16
2022-12-05T07:47:51.420Z,1000.15
2022-12-05T07:48:51.382Z,1000.12
2022-12-05T07:49:51.355Z,1000.20
2022-12-05T07:50:51.417Z,1000.14
2022-12-05T07:51:51.372Z,1000.16
2022-12-05T07:52:51.367Z,1000.15
2022-12-05T07:53:51.322Z,1000.21
2022-12-05T07:54:51.345Z,1000.26
2022-12-05T07:55:51.319Z,1000.28
2022-12-05T07:56:51.307Z,1000.26
2022-12-05T07:57:51.372Z,1000.32
2022-12-05T07:58:51.316Z,1000.33
2022-12-05T07:59:51.330Z,1000.40
2022-12-05T08:00:51.356Z,1000.30
2022-12-05T08:01:51.385Z,1000.27
2022-12-05T08:02:51.274Z,1000.29
2022-12-05T08:03:51.251Z,1000.29
2022-12-05T08:04:51.231Z,1000.30
2022-12-05T08:05:52.289Z,1000.30
2022-12-05T08:06:51.227Z,1000.32
2022-12-05T08:07:51.281Z,1000.29
2022-12-05T08:08:51.226Z,1000.26
2022-12-05T08:09:51.226Z,1000.27
2022-12-05T08:10:51.200Z,1000.32
2022-12-05T08:11:52.847Z,1000.31
2022-12-05T08:12:52.196Z,1000.33
2022-12-05T08:13:51.165Z,1000.30
2022-12-05T08:14:51.188Z,1000.34
2022-12-05T08:15:51.159Z,1000.30
2022-12-05T08:16:51.218Z,1000.34
2022-12-05T08:17:51.202Z,1000.30
2022-12-05T08:18:51.150Z,1000.30
2022-12-05T08:19:51.129Z,1000.32
2022-12-05T08:20:51.145Z,1000.38
2022-12-05T08:21:51.138Z,1000.33
2022-12-05T08:22:51.110Z,1000.37
2022-12-05T08:23:51.136Z,1000.37
2022-12-05T08:24:56.135Z,1000.37
2022-12-05T08:25:53.091Z,1000.34
2022-12-05T08:26:51.114Z,1000.32
2022-12-05T08:27:51.150Z,1000.35
2022-12-05T08:28:51.114Z,1000.34
2022-12-05T08:29:51.040Z,1000.41
2022-12-05T08:30:51.090Z,1000.39
2022-12-05T08:31:51.052Z,1000.40
2022-12-05T08:32:51.045Z,1000.39
2022-12-05T08:33:55.548Z,1000.45
2022-12-05T08:34:53.040Z,1000.40
2022-12-05T08:35:51.020Z,1000.44
2022-12-05T08:36:51.004Z,1000.48
2022-12-05T08:37:51.017Z,1000.42
2022-12-05T08:38:51.017Z,1000.43
2022-12-05T08:39:50.963Z,1000.51
2022-12-05T08:40:51.028Z,1000.43
2022-12-05T08:41:50.970Z,1000.45
2022-12-05T08:42:50.962Z,1000.46
2022-12-05T08:43:50.969Z,1000.48
2022-12-05T08:44:50.998Z,1000.43
2022-12-05T08:45:50.952Z,1000.45
2022-12-05T08:46:50.933Z,1000.42
2022-12-05T08:47:50.901Z,1000.39
2022-12-05T08:48:50.955Z,1000.41
2022-12-05T08:49:50.922Z,1000.38
2022-12-05T08:50:50.909Z,1000.45
2022-12-05T08:51:50.881Z,1000.42
2022-12-05T08:52:50.888Z,1000.48
2022-12-05T08:54:23.280Z,1000.42
2022-12-05T08:54:50.932Z,1000.50
2022-12-05T08:56:26.870Z,1000.47
2022-12-05T08:56:50.895Z,1000.45
2022-12-05T08:58:22.760Z,1000.42
2022-12-05T08:58:50.833Z,1000.44
2022-12-05T08:59:50.911Z,1000.48
2022-12-05T09:00:50.859Z,1000.54
2022-12-05T09:01:50.916Z,1000.56
2022-12-05T09:02:50.863Z,1000.57
2022-12-05T09:03:50.786Z,1000.59
2022-12-05T09:04:53.832Z,1000.56
2022-12-05T09:05:54.888Z,1000.56
2022-12-05T09:06:51.827Z,1000.57
2022-12-05T09:07:50.847Z,1000.54
2022-12-05T09:08:50.836Z,1000.56
2022-12-05T09:09:50.740Z,1000.61
2022-12-05T09:10:50.766Z,1000.61
2022-12-05T09:11:50.761Z,1000.64
2022-12-05T09:12:50.742Z,1000.64
2022-12-05T09:13:50.740Z,1000.58
2022-12-05T09:14:50.713Z,1000.62
2022-12-05T09:15:50.754Z,1000.64
2022-12-05T09:16:59.901Z,1000.68
2022-12-05T09:17:50.762Z,1000.63
2022-12-05T09:18:50.703Z,1000.66
2022-12-05T09:19:50.772Z,1000.71
2022-12-05T09:20:50.754Z,1000.74
2022-12-05T09:21:50.764Z,1000.67
2022-12-05T09:23:16.592Z,1000.71
2022-12-05T09:23:50.737Z,1000.73
2022-12-05T09:24:50.650Z,1000.73
2022-12-05T09:25:50.673Z,1000.73
2022-12-05T09:26:50.674Z,1000.73
2022-12-05T09:27:50.841Z,1000.76
2022-12-05T09:28:50.633Z,1000.78
2022-12-05T09:29:50.582Z,1000.75
2022-12-05T09:30:50.637Z,1000.75
2022-12-05T09:31:50.584Z,1000.77
2022-12-05T09:32:50.564Z,1000.81
2022-12-05T09:33:50.561Z,1000.77
2022-12-05T09:34:50.565Z,1000.82
2022-12-05T09:35:50.526Z,1000.77
2022-12-05T09:36:50.528Z,1000.74
2022-12-05T09:37:50.526Z,1000.84
2022-12-05T09:38:50.501Z,1000.78
2022-12-05T09:39:50.533Z,1000.73
2022-12-05T09:40:51.267Z,1000.71
2022-12-05T09:41:50.496Z,1000.65
2022-12-05T09:42:50.605Z,1000.69
2022-12-05T09:43:50.500Z,1000.64
2022-12-05T09:44:50.485Z,1000.64
2022-12-05T09:45:50.626Z,1000.66
2022-12-05T09:46:50.492Z,1000.69
2022-12-05T09:47:50.487Z,1000.68
2022-12-05T09:48:50.449Z,1000.72
2022-12-05T09:49:50.423Z,1000.69
2022-12-05T09:50:50.476Z,1000.74
2022-12-05T09:51:55.085Z,1000.69
2022-12-05T09:52:52.440Z,1000.70
2022-12-05T09:53:50.409Z,1000.72
2022-12-05T09:54:50.409Z,1000.69
2022-12-05T09:55:50.434Z,1000.69
2022-12-05T09:56:50.378Z,1000.73
2022-12-05T09:57:50.373Z,1000.62
2022-12-05T09:58:50.392Z,1000.64
2022-12-05T09:59:50.408Z,1000.72
2022-12-05T10:00:50.353Z,1000.72
2022-12-05T10:01:51.240Z,1000.69
2022-12-05T10:02:50.336Z,1000.74
2022-12-05T10:03:50.440Z,1000.70
2022-12-05T10:04:52.451Z,1000.69
2022-12-05T10:05:51.497Z,1000.73
2022-12-05T10:06:50.374Z,1000.70
2022-12-05T10:07:50.404Z,1000.75
2022-12-05T10:08:50.350Z,1000.71
2022-12-05T10:09:50.313Z,1000.72
2022-12-05T10:10:50.278Z,1000.73
2022-12-05T10:11:50.316Z,1000.73
2022-12-05T10:12:50.256Z,1000.75
2022-12-05T10:13:50.279Z,1000.76
2022-12-05T10:14:50.252Z,1000.73
2022-12-05T10:15:55.628Z,1000.73
2022-12-05T10:16:52.251Z,1000.72
2022-12-05T10:17:50.250Z,1000.74
2022-12-05T10:18:50.264Z,1000.73
2022-12-05T10:19:50.238Z,1000.73
2022-12-05T10:20:50.219Z,1000.72
2022-12-05T10:21:50.217Z,1000.72
2022-12-05T10:22:50.192Z,1000.74
2022-12-05T10:23:57.667Z,1000.80
2022-12-05T10:24:52.189Z,1000.81
2022-12-05T10:25:50.185Z,1000.76
2022-12-05T10:26:50.178Z,1000.77
2022-12-05T10:27:50.189Z,1000.73
2022-12-05T10:28:50.134Z,1000.79
2022-12-05T10:29:50.691Z,1000.70
2022-12-05T10:30:50.181Z,1000.78
2022-12-05T10:31:50.163Z,1000.75
2022-12-05T10:32:50.097Z,1000.79
2022-12-05T10:33:50.086Z,1000.76
2022-12-05T10:34:50.082Z,1000.79
2022-12-05T10:35:50.094Z,1000.80
2022-12-05T10:36:50.093Z,1000.86
2022-12-05T10:37:50.090Z,1000.86
2022-12-05T10:38:50.076Z,1000.86
2022-12-05T10:39:50.062Z,1000.86
2022-12-05T10:40:50.043Z,1000.93
2022-12-05T10:41:50.440Z,1000.92
2022-12-05T10:42:50.091Z,1000.86
2022-12-05T10:43:50.020Z,1000.89
2022-12-05T10:44:50.031Z,1000.86
2022-12-05T10:45:50.011Z,1000.86
2022-12-05T10:46:50.107Z,1000.87
2022-12-05T10:47:50.010Z,1000.82
2022-12-05T10:48:49.976Z,1000.92
2022-12-05T10:49:49.969Z,1000.87
2022-12-05T10:50:50.030Z,1000.79
2022-12-05T10:51:49.994Z,1000.85
2022-12-05T10:52:49.946Z,1000.80
2022-12-05T10:53:49.967Z,1000.78
2022-12-05T10:54:49.960Z,1000.80
2022-12-05T10:56:21.469Z,1000.67
2022-12-05T10:56:51.959Z,1000.78
2022-12-05T10:57:49.937Z,1000.71
2022-12-05T10:58:49.926Z,1000.68
2022-12-05T10:59:49.955Z,1000.68
2022-12-05T11:00:49.895Z,1000.68
2022-12-05T11:01:49.938Z,1000.67
2022-12-05T11:02:49.877Z,1000.66
2022-12-05T11:03:49.874Z,1000.61
2022-12-05T11:04:49.975Z,1000.60
2022-12-05T11:05:49.851Z,1000.64
2022-12-05T11:06:49.841Z,1000.67
2022-12-05T11:07:50.032Z,1000.64
2022-12-05T11:09:06.429Z,1000.60
2022-12-05T11:09:51.803Z,1000.66
2022-12-05T11:10:49.823Z,1000.66
2022-12-05T11:11:49.846Z,1000.70
2022-12-05T11:12:49.807Z,1000.64
2022-12-05T11:13:49.792Z,1000.67
2022-12-05T11:14:49.828Z,1000.70
2022-12-05T11:15:55.354Z,1000.67
2022-12-05T11:16:51.824Z,1000.66
2022-12-05T11:17:49.746Z,1000.67
2022-12-05T11:18:49.761Z,1000.69
2022-12-05T11:19:49.766Z,1000.58
2022-12-05T11:20:49.743Z,1000.65
2022-12-05T11:21:49.719Z,1000.61
2022-12-05T11:22:49.719Z,1000.69
2022-12-05T11:23:49.705Z,1000.67
2022-12-05T11:24:49.734Z,1000.65
2022-12-05T11:25:49.680Z,1000.66
2022-12-05T11:26:49.673Z,1000.57
2022-12-05T11:27:49.672Z,1000.64
2022-12-05T11:28:49.672Z,1000.61
2022-12-05T11:29:49.677Z,1000.59
2022-12-05T11:30:49.669Z,1000.57
2022-12-05T11:31:49.652Z,1000.59
2022-12-05T11:32:49.662Z,1000.64
2022-12-05T11:33:49.637Z,1000.65
2022-12-05T11:34:49.660Z,1000.64
2022-12-05T11:35:49.647Z,1000.63
2022-12-05T11:36:49.630Z,1000.64
2022-12-05T11:37:49.594Z,1000.62
2022-12-05T11:38:49.567Z,1000.57
2022-12-05T11:39:50.584Z,1000.60
2022-12-05T11:40:49.601Z,1000.56
2022-12-05T11:41:49.587Z,1000.56
2022-12-05T11:42:49.582Z,1000.60
2022-12-05T11:43:49.557Z,1000.56
2022-12-05T11:44:49.551Z,1000.51
2022-12-05T11:45:49.596Z,1000.51
2022-12-05T11:46:49.640Z,1000.53
2022-12-05T11:47:49.538Z,1000.54
2022-12-05T11:48:49.495Z,1000.55
2022-12-05T11:49:50.504Z,1000.52
2022-12-05T11:50:49.503Z,1000.55
2022-12-05T11:51:49.515Z,1000.55
2022-12-05T11:52:49.513Z,1000.51
2022-12-05T11:53:49.482Z,1000.54
2022-12-05T11:55:05.137Z,1000.54
2022-12-05T11:55:51.500Z,1000.55
2022-12-05T11:56:49.505Z,1000.62
2022-12-05T11:57:52.534Z,1000.56
2022-12-05T11:58:50.471Z,1000.59
2022-12-05T11:59:49.441Z,1000.59
2022-12-05T12:00:49.407Z,1000.56
2022-12-05T12:01:49.455Z,1000.57
2022-12-05T12:02:49.521Z,1000.52
2022-12-05T12:03:49.469Z,1000.52
2022-12-05T12:04:49.406Z,1000.52
2022-12-05T12:05:49.363Z,1000.56
2022-12-05T12:06:49.423Z,1000.53
2022-12-05T12:07:49.439Z,1000.58
2022-12-05T12:08:49.387Z,1000.55
2022-12-05T12:09:49.362Z,1000.59
2022-12-05T12:10:49.360Z,1000.58
2022-12-05T12:11:49.337Z,1000.65
2022-12-05T12:12:49.360Z,1000.59
2022-12-05T12:13:49.337Z,1000.65
2022-12-05T12:14:49.292Z,1000.65
2022-12-05T12:15:49.306Z,1000.63
2022-12-05T12:16:49.387Z,1000.69
2022-12-05T12:17:49.282Z,1000.64
2022-12-05T12:18:49.288Z,1000.65
2022-12-05T12:19:49.266Z,1000.64
2022-12-05T12:20:49.273Z,1000.67
2022-12-05T12:21:49.250Z,1000.71
2022-12-05T12:22:49.254Z,1000.74
2022-12-05T12:23:49.260Z,1000.76
2022-12-05T12:24:49.227Z,1000.67
2022-12-05T12:25:49.243Z,1000.71
2022-12-05T12:26:49.253Z,1000.75
2022-12-05T12:27:49.227Z,1000.75
2022-12-05T12:28:49.229Z,1000.77
2022-12-05T12:29:49.180Z,1000.76
2022-12-05T12:30:49.200Z,1000.80
2022-12-05T12:31:49.283Z,1000.81
2022-12-05T12:32:49.161Z,1000.79
2022-12-05T12:33:49.165Z,1000.76